createdAt,value
2018-04-30T00:01:58.738Z,16.34
2018-04-30T00:04:27.197Z,16.36
2018-04-30T00:06:55.671Z,16.40
2018-04-30T00:09:24.188Z,16.42
2018-04-30T00:11:52.692Z,16.39
2018-04-30T00:14:21.129Z,16.43
2018-04-30T00:16:49.628Z,16.39
2018-04-30T00:19:18.139Z,16.39
2018-04-30T00:21:46.640Z,16.41
2018-04-30T00:24:15.140Z,16.39
2018-04-30T00:26:43.608Z,16.33
2018-04-30T00:29:12.096Z,16.43
2018-04-30T00:31:40.549Z,16.40
2018-04-30T00:34:09.040Z,16.43
2018-04-30T00:36:37.498Z,16.47
2018-04-30T00:39:06.024Z,16.38
2018-04-30T00:41:34.519Z,16.36
2018-04-30T00:44:03.046Z,16.45
2018-04-30T00:46:31.501Z,16.34
2018-04-30T00:48:59.952Z,16.41
2018-04-30T00:51:28.467Z,16.41
2018-04-30T00:53:56.913Z,16.42
2018-04-30T00:56:25.356Z,16.46
2018-04-30T00:58:53.812Z,16.45
2018-04-30T01:01:22.310Z,16.45
2018-04-30T01:03:50.765Z,16.47
2018-04-30T01:06:19.262Z,16.46
2018-04-30T01:08:47.729Z,16.40
2018-04-30T01:11:16.212Z,16.35
2018-04-30T01:13:44.712Z,16.37
2018-04-30T01:16:13.256Z,16.27
2018-04-30T01:18:41.804Z,16.36
2018-04-30T01:21:10.264Z,16.33
2018-04-30T01:23:39.237Z,16.35
2018-04-30T01:26:07.696Z,16.32
2018-04-30T01:28:36.208Z,16.31
2018-04-30T01:31:04.692Z,16.25
2018-04-30T01:33:33.188Z,16.21
2018-04-30T01:36:01.684Z,16.24
2018-04-30T01:38:30.149Z,16.23
2018-04-30T01:40:58.610Z,16.22
2018-04-30T01:43:27.078Z,16.20
2018-04-30T01:45:55.525Z,16.16
2018-04-30T01:48:24.024Z,16.13
2018-04-30T01:50:52.470Z,16.05
2018-04-30T01:53:20.937Z,16.07
2018-04-30T01:55:49.424Z,16.05
2018-04-30T01:58:17.914Z,16.04
2018-04-30T02:00:46.392Z,16.00
2018-04-30T02:03:14.901Z,15.98
2018-04-30T02:05:43.414Z,15.95
2018-04-30T02:08:11.882Z,15.96
2018-04-30T02:10:40.386Z,15.97
2018-04-30T02:13:08.869Z,15.95
2018-04-30T02:15:37.331Z,15.94
2018-04-30T02:18:05.830Z,15.89
2018-04-30T02:20:34.320Z,15.91
2018-04-30T02:23:02.763Z,15.88
2018-04-30T02:25:31.277Z,15.87
2018-04-30T02:27:59.797Z,15.85
2018-04-30T02:30:28.252Z,15.82
2018-04-30T02:32:56.716Z,15.81
2018-04-30T02:35:25.259Z,15.76
2018-04-30T02:37:53.712Z,15.71
2018-04-30T02:40:22.213Z,15.74
2018-04-30T02:42:50.708Z,15.67
2018-04-30T02:45:19.164Z,15.61
2018-04-30T02:47:47.625Z,15.58
2018-04-30T02:50:16.054Z,15.52
2018-04-30T02:52:44.550Z,15.54
2018-04-30T02:55:13.013Z,15.47
2018-04-30T02:57:41.500Z,15.44
2018-04-30T03:00:09.980Z,15.43
2018-04-30T03:02:38.452Z,15.43
2018-04-30T03:05:06.933Z,15.41
2018-04-30T03:07:35.390Z,15.41
2018-04-30T03:10:03.911Z,15.40
2018-04-30T03:12:32.376Z,15.42
2018-04-30T03:15:00.845Z,15.39
2018-04-30T03:17:29.357Z,15.36
2018-04-30T03:19:57.838Z,15.29
2018-04-30T03:22:26.325Z,15.30
2018-04-30T03:24:54.781Z,15.25
2018-04-30T03:27:23.365Z,15.23
2018-04-30T03:29:51.802Z,15.20
2018-04-30T03:32:20.245Z,15.20
2018-04-30T03:34:48.779Z,15.18
2018-04-30T03:37:17.221Z,15.18
2018-04-30T03:39:45.660Z,15.18
2018-04-30T03:42:14.136Z,15.17
2018-04-30T03:44:42.588Z,15.09
2018-04-30T03:47:11.122Z,15.17
2018-04-30T03:49:39.612Z,15.15
2018-04-30T03:52:08.089Z,15.19
2018-04-30T03:54:36.571Z,15.14
2018-04-30T03:57:05.026Z,15.26
2018-04-30T03:59:33.508Z,15.29
2018-04-30T04:02:13.620Z,15.47
2018-04-30T04:04:53.869Z,15.57
2018-04-30T04:07:22.384Z,15.66
2018-04-30T04:09:50.840Z,15.78
2018-04-30T04:12:19.330Z,15.86
2018-04-30T04:14:47.821Z,15.98
2018-04-30T04:17:16.307Z,16.04
2018-04-30T04:19:44.809Z,16.33
2018-04-30T04:22:13.292Z,16.48
2018-04-30T04:24:41.754Z,16.58
2018-04-30T04:27:10.244Z,16.78
2018-04-30T04:29:38.709Z,16.81
2018-04-30T04:32:07.247Z,16.88
2018-04-30T04:34:35.700Z,16.97
2018-04-30T04:37:04.190Z,16.99
2018-04-30T04:39:32.650Z,16.96
2018-04-30T04:42:01.118Z,17.04
2018-04-30T04:44:29.612Z,17.20
2018-04-30T04:46:58.085Z,17.29
2018-04-30T04:49:26.584Z,17.59
2018-04-30T04:51:55.093Z,17.75
2018-04-30T04:54:23.608Z,17.95
2018-04-30T04:56:52.064Z,18.03
2018-04-30T04:59:20.512Z,18.16
2018-04-30T05:01:49.009Z,18.18
2018-04-30T05:04:17.499Z,17.97
2018-04-30T05:06:45.997Z,18.07
2018-04-30T05:09:14.473Z,17.90
2018-04-30T05:11:42.940Z,17.89
2018-04-30T05:14:11.455Z,18.01
2018-04-30T05:16:39.936Z,17.81
2018-04-30T05:19:08.433Z,18.13
2018-04-30T05:21:36.892Z,18.55
2018-04-30T05:24:05.430Z,18.73
2018-04-30T05:26:35.718Z,18.92
2018-04-30T05:29:04.212Z,18.93
2018-04-30T05:31:32.817Z,19.20
2018-04-30T05:34:01.298Z,19.24
2018-04-30T05:36:29.800Z,19.14
2018-04-30T05:38:58.304Z,18.92
2018-04-30T05:41:27.116Z,19.16
2018-04-30T05:43:55.611Z,18.96
2018-04-30T05:46:24.122Z,18.85
2018-04-30T05:48:52.623Z,19.19
2018-04-30T05:51:21.183Z,19.30
2018-04-30T05:53:49.734Z,19.51
2018-04-30T05:56:18.290Z,19.78
2018-04-30T05:58:46.903Z,19.58
2018-04-30T06:01:15.402Z,19.80
2018-04-30T06:03:43.865Z,19.66
2018-04-30T06:06:12.376Z,19.81
2018-04-30T06:08:40.816Z,20.04
2018-04-30T06:11:09.277Z,20.31
2018-04-30T06:13:37.775Z,20.53
2018-04-30T06:16:06.256Z,20.78
2018-04-30T06:18:34.776Z,20.75
2018-04-30T06:21:03.266Z,20.64
2018-04-30T06:23:32.647Z,20.85
2018-04-30T06:26:01.172Z,20.67
2018-04-30T06:28:29.714Z,20.39
2018-04-30T06:30:58.201Z,20.56
2018-04-30T06:33:26.672Z,20.69
2018-04-30T06:35:55.291Z,20.91
2018-04-30T06:38:23.710Z,20.82
2018-04-30T06:40:52.152Z,20.97
2018-04-30T06:43:20.646Z,20.84
2018-04-30T06:45:49.125Z,20.90
2018-04-30T06:48:17.654Z,21.04
2018-04-30T06:50:46.130Z,21.49
2018-04-30T06:53:14.638Z,21.34
2018-04-30T06:55:43.140Z,21.11
2018-04-30T06:58:11.595Z,21.46
2018-04-30T07:00:40.087Z,21.77
2018-04-30T07:03:08.533Z,21.88
2018-04-30T07:05:37.016Z,21.97
2018-04-30T07:08:05.509Z,22.36
2018-04-30T07:10:33.956Z,22.05
2018-04-30T07:13:02.495Z,22.50
2018-04-30T07:15:31.009Z,22.27
2018-04-30T07:17:59.488Z,22.14
2018-04-30T07:20:27.955Z,22.59
2018-04-30T07:22:56.445Z,22.73
2018-04-30T07:25:24.893Z,22.63
2018-04-30T07:27:53.457Z,22.60
2018-04-30T07:30:21.884Z,22.86
2018-04-30T07:32:50.365Z,22.91
2018-04-30T07:35:18.811Z,22.77
2018-04-30T07:37:47.294Z,22.53
2018-04-30T07:40:15.741Z,22.90
2018-04-30T07:42:44.185Z,22.93
2018-04-30T07:45:12.704Z,23.14
2018-04-30T07:47:41.169Z,23.08
2018-04-30T07:50:09.601Z,23.02
2018-04-30T07:52:38.744Z,23.27
2018-04-30T07:55:07.305Z,23.24
2018-04-30T07:57:35.795Z,23.47
2018-04-30T08:00:04.325Z,23.81
2018-04-30T08:02:32.781Z,23.66
2018-04-30T08:05:01.273Z,23.54
2018-04-30T08:07:29.765Z,23.60
2018-04-30T08:09:58.334Z,23.90
2018-04-30T08:12:26.868Z,24.02
2018-04-30T08:14:55.423Z,23.84
2018-04-30T08:17:23.881Z,23.82
2018-04-30T08:19:52.392Z,23.94
2018-04-30T08:22:20.839Z,23.84
2018-04-30T08:24:49.280Z,23.68
2018-04-30T08:27:17.778Z,23.69
2018-04-30T08:29:46.283Z,23.82
2018-04-30T08:32:14.745Z,23.60
2018-04-30T08:34:43.277Z,23.69
2018-04-30T08:37:11.766Z,23.64
2018-04-30T08:39:40.300Z,23.72
2018-04-30T08:42:08.800Z,23.94
2018-04-30T08:44:37.363Z,23.98
2018-04-30T08:47:05.812Z,23.72
2018-04-30T08:49:34.262Z,23.76
2018-04-30T08:52:02.862Z,23.81
2018-04-30T08:54:31.336Z,23.71
2018-04-30T08:56:59.872Z,23.68
2018-04-30T08:59:28.324Z,23.86
2018-04-30T09:01:56.889Z,24.16
2018-04-30T09:04:25.365Z,24.24
2018-04-30T09:06:53.825Z,24.48
2018-04-30T09:09:22.314Z,24.53
2018-04-30T09:11:50.771Z,24.63
2018-04-30T09:14:19.261Z,24.79
2018-04-30T09:16:47.735Z,24.80
2018-04-30T09:19:16.220Z,24.85
2018-04-30T09:21:44.697Z,24.94
2018-04-30T09:24:13.191Z,24.91
2018-04-30T09:26:41.708Z,25.29
2018-04-30T09:29:10.216Z,25.48
2018-04-30T09:31:38.702Z,25.42
2018-04-30T09:34:07.189Z,25.43
2018-04-30T09:36:35.669Z,25.49
2018-04-30T09:39:04.210Z,25.36
2018-04-30T09:41:32.736Z,25.50
2018-04-30T09:46:22.408Z,25.63
2018-04-30T09:48:50.857Z,25.70
2018-04-30T09:51:19.300Z,25.48
2018-04-30T09:53:47.812Z,25.67
2018-04-30T09:56:16.357Z,25.69
2018-04-30T09:58:44.800Z,25.96
2018-04-30T10:01:13.289Z,25.76
2018-04-30T10:03:41.756Z,25.63
2018-04-30T10:06:10.218Z,25.86
2018-04-30T10:08:38.704Z,25.86
2018-04-30T10:11:07.221Z,25.79
2018-04-30T10:13:35.684Z,25.73
2018-04-30T10:16:04.132Z,25.77
2018-04-30T10:18:32.626Z,25.76
2018-04-30T10:21:01.169Z,26.07
2018-04-30T10:23:29.776Z,26.44
2018-04-30T10:25:58.220Z,26.32
2018-04-30T10:28:26.789Z,26.75
2018-04-30T10:30:55.242Z,26.82
2018-04-30T10:33:23.681Z,27.02
2018-04-30T10:35:52.165Z,27.05
2018-04-30T10:38:20.668Z,27.25
2018-04-30T10:40:49.154Z,27.53
2018-04-30T10:43:17.643Z,27.57
2018-04-30T10:45:46.119Z,27.63
2018-04-30T10:48:14.588Z,27.89
2018-04-30T10:50:43.028Z,27.81
2018-04-30T10:53:11.521Z,27.36
2018-04-30T10:55:40.021Z,27.62
2018-04-30T10:58:08.496Z,27.60
2018-04-30T11:00:36.952Z,27.32
2018-04-30T11:03:05.443Z,27.52
2018-04-30T11:05:33.899Z,27.27
2018-04-30T11:08:02.382Z,27.29
2018-04-30T11:10:30.881Z,27.39
2018-04-30T11:12:59.357Z,27.51
2018-04-30T11:15:27.836Z,27.69
2018-04-30T11:17:56.281Z,27.72
2018-04-30T11:20:24.757Z,27.63
2018-04-30T11:22:53.196Z,27.35
2018-04-30T11:25:21.691Z,27.75
2018-04-30T11:27:50.132Z,28.02
2018-04-30T11:30:18.609Z,28.12
2018-04-30T11:32:47.116Z,28.13
2018-04-30T11:35:15.569Z,28.10
2018-04-30T11:37:44.082Z,28.26
2018-04-30T11:40:12.633Z,28.30
2018-04-30T11:42:41.134Z,28.39
2018-04-30T11:45:09.613Z,28.28
2018-04-30T11:47:38.082Z,28.34
2018-04-30T11:50:06.634Z,28.11
2018-04-30T11:52:35.093Z,28.11
2018-04-30T11:55:03.595Z,28.09
2018-04-30T11:57:32.082Z,28.06
2018-04-30T12:00:00.606Z,27.99
2018-04-30T12:02:29.128Z,28.10
2018-04-30T12:04:57.632Z,27.99
2018-04-30T12:07:26.116Z,28.04
2018-04-30T12:09:54.578Z,28.11
2018-04-30T12:12:23.085Z,28.08
2018-04-30T12:14:51.591Z,27.90
2018-04-30T12:17:20.053Z,28.07
2018-04-30T12:19:48.552Z,28.07
2018-04-30T12:22:17.076Z,28.09
2018-04-30T12:24:45.582Z,28.10
2018-04-30T12:27:14.083Z,27.90
2018-04-30T12:29:42.967Z,27.97
2018-04-30T12:32:11.415Z,28.02
2018-04-30T12:34:39.868Z,27.99
2018-04-30T12:37:08.369Z,27.93
2018-04-30T12:39:36.864Z,28.16
2018-04-30T12:42:05.364Z,28.10
2018-04-30T12:44:33.820Z,28.24
2018-04-30T12:47:02.283Z,28.27
2018-04-30T12:49:30.847Z,28.32
2018-04-30T12:51:59.357Z,28.52
2018-04-30T12:54:27.819Z,28.35
2018-04-30T12:56:56.327Z,28.38
2018-04-30T12:59:24.825Z,28.40
2018-04-30T13:01:53.372Z,28.43
2018-04-30T13:04:21.893Z,28.55
2018-04-30T13:06:50.382Z,28.50
2018-04-30T13:09:18.831Z,28.37
2018-04-30T13:11:47.331Z,28.38
2018-04-30T13:14:15.849Z,28.29
2018-04-30T13:16:44.369Z,28.06
2018-04-30T13:19:12.856Z,28.20
2018-04-30T13:21:41.344Z,28.21
2018-04-30T13:24:09.802Z,28.13
2018-04-30T13:26:38.344Z,28.07
2018-04-30T13:29:06.787Z,28.12
2018-04-30T13:31:35.237Z,28.17
2018-04-30T13:34:03.696Z,28.23
2018-04-30T13:36:32.206Z,28.18
2018-04-30T13:39:00.658Z,28.10
2018-04-30T13:41:29.120Z,28.11
2018-04-30T13:43:57.777Z,28.20
2018-04-30T13:46:26.411Z,28.05
2018-04-30T13:48:55.025Z,28.16
2018-04-30T13:51:23.517Z,28.03
2018-04-30T13:53:52.011Z,27.77
2018-04-30T13:56:20.456Z,27.70
2018-04-30T13:58:48.944Z,27.86
2018-04-30T14:01:17.535Z,27.81
2018-04-30T14:03:46.005Z,27.86
2018-04-30T14:06:14.463Z,27.71
2018-04-30T14:08:42.940Z,27.62
2018-04-30T14:11:11.384Z,27.65
2018-04-30T14:13:39.870Z,27.60
2018-04-30T14:16:08.368Z,27.60
2018-04-30T14:18:36.822Z,27.52
2018-04-30T14:21:05.352Z,27.48
2018-04-30T14:23:33.819Z,27.25
2018-04-30T14:26:02.305Z,27.32
2018-04-30T14:28:30.819Z,27.33
2018-04-30T14:30:59.269Z,27.17
2018-04-30T14:33:28.234Z,27.10
2018-04-30T14:35:56.784Z,27.12
2018-04-30T14:38:25.275Z,26.95
2018-04-30T14:40:53.753Z,26.88
2018-04-30T14:43:22.196Z,26.89
2018-04-30T14:45:50.772Z,26.88
2018-04-30T14:48:19.212Z,26.79
2018-04-30T14:50:47.661Z,26.73
2018-04-30T14:53:16.141Z,26.72
2018-04-30T14:55:44.612Z,26.61
2018-04-30T14:58:13.060Z,26.57
2018-04-30T15:00:41.580Z,26.36
2018-04-30T15:03:10.020Z,26.39
2018-04-30T15:05:38.472Z,26.34
2018-04-30T15:08:06.956Z,26.26
2018-04-30T15:10:35.418Z,26.19
2018-04-30T15:13:03.896Z,26.06
2018-04-30T15:15:32.337Z,25.99
2018-04-30T15:18:00.808Z,25.94
2018-04-30T15:20:29.294Z,25.91
2018-04-30T15:22:57.741Z,25.77
2018-04-30T15:25:26.233Z,25.85
2018-04-30T15:27:54.677Z,25.78
2018-04-30T15:30:23.115Z,25.75
2018-04-30T15:32:51.604Z,25.64
2018-04-30T15:35:20.029Z,25.65
2018-04-30T15:37:48.501Z,25.56
2018-04-30T15:40:16.949Z,25.52
2018-04-30T15:42:45.392Z,25.46
2018-04-30T15:45:13.903Z,25.41
2018-04-30T15:47:42.352Z,25.36
2018-04-30T15:50:10.792Z,25.31
2018-04-30T15:52:39.290Z,25.27
2018-04-30T15:55:07.799Z,25.20
2018-04-30T15:57:36.233Z,25.19
2018-04-30T16:00:04.713Z,25.16
2018-04-30T16:02:33.166Z,25.12
2018-04-30T16:05:01.649Z,25.10
2018-04-30T16:07:30.144Z,25.01
2018-04-30T16:09:58.676Z,25.00
2018-04-30T16:12:27.133Z,24.99
2018-04-30T16:14:55.613Z,24.94
2018-04-30T16:17:24.056Z,24.88
2018-04-30T16:19:52.549Z,24.87
2018-04-30T16:22:20.995Z,24.83
2018-04-30T16:24:49.481Z,24.80
2018-04-30T16:27:18.096Z,24.70
2018-04-30T16:29:46.539Z,24.65
2018-04-30T16:32:15.040Z,24.66
2018-04-30T16:34:43.520Z,24.62
2018-04-30T16:37:12.000Z,24.59
2018-04-30T16:39:40.546Z,24.56
2018-04-30T16:42:08.989Z,24.47
2018-04-30T16:44:37.468Z,24.46
2018-04-30T16:47:05.990Z,24.44
2018-04-30T16:49:34.470Z,24.38
2018-04-30T16:52:02.924Z,24.32
2018-04-30T16:54:31.414Z,24.24
2018-04-30T16:56:59.900Z,24.21
2018-04-30T16:59:28.380Z,24.12
2018-04-30T17:01:56.824Z,24.02
2018-04-30T17:04:25.337Z,24.06
2018-04-30T17:06:53.788Z,24.01
2018-04-30T17:09:22.260Z,23.96
2018-04-30T17:11:50.775Z,23.91
2018-04-30T17:14:19.220Z,23.87
2018-04-30T17:16:47.705Z,23.84
2018-04-30T17:19:16.192Z,23.80
2018-04-30T17:21:44.634Z,23.77
2018-04-30T17:24:13.096Z,23.73
2018-04-30T17:26:41.609Z,23.67
2018-04-30T17:29:10.108Z,23.60
2018-04-30T17:31:38.580Z,23.55
2018-04-30T17:34:07.072Z,23.53
2018-04-30T17:36:35.601Z,23.48
2018-04-30T17:39:04.085Z,23.45
2018-04-30T17:41:32.575Z,23.38
2018-04-30T17:44:01.149Z,23.37
2018-04-30T17:46:29.592Z,23.30
2018-04-30T17:48:58.028Z,23.27
2018-04-30T17:51:26.508Z,23.25
2018-04-30T17:53:54.952Z,23.25
2018-04-30T17:56:23.448Z,23.19
2018-04-30T17:58:51.954Z,23.16
2018-04-30T18:01:20.426Z,23.07
2018-04-30T18:03:48.876Z,23.05
2018-04-30T18:06:17.458Z,23.02
2018-04-30T18:08:45.908Z,23.00
2018-04-30T18:11:14.393Z,22.90
2018-04-30T18:13:42.876Z,22.90
2018-04-30T18:16:11.324Z,22.87
2018-04-30T18:18:40.444Z,22.82
2018-04-30T18:21:08.892Z,22.78
2018-04-30T18:23:37.340Z,22.73
2018-04-30T18:26:05.868Z,22.66
2018-04-30T18:28:34.335Z,22.62
2018-04-30T18:31:02.818Z,22.44
2018-04-30T18:33:31.294Z,22.47
2018-04-30T18:35:59.772Z,22.43
2018-04-30T18:38:28.256Z,22.35
2018-04-30T18:40:56.740Z,22.26
2018-04-30T18:43:25.217Z,22.18
2018-04-30T18:45:53.717Z,22.12
2018-04-30T18:48:22.204Z,22.08
2018-04-30T18:50:50.684Z,22.04
2018-04-30T18:53:19.169Z,21.98
2018-04-30T18:55:47.636Z,21.95
2018-04-30T18:58:16.121Z,21.87
2018-04-30T19:00:44.611Z,21.84
2018-04-30T19:03:13.068Z,21.69
2018-04-30T19:05:41.559Z,21.72
2018-04-30T19:08:10.064Z,21.73
2018-04-30T19:10:38.544Z,21.70
2018-04-30T19:13:07.013Z,21.63
2018-04-30T19:15:35.484Z,21.56
2018-04-30T19:18:03.994Z,21.54
2018-04-30T19:20:32.480Z,21.54
2018-04-30T19:23:00.940Z,21.53
2018-04-30T19:25:29.428Z,21.55
2018-04-30T19:27:57.880Z,21.41
2018-04-30T19:30:26.365Z,21.39
2018-04-30T19:32:54.825Z,21.41
2018-04-30T19:35:23.318Z,21.35
2018-04-30T19:37:51.809Z,21.19
2018-04-30T19:40:20.275Z,21.20
2018-04-30T19:42:48.728Z,21.20
2018-04-30T19:45:17.237Z,21.19
2018-04-30T19:47:45.725Z,21.14
2018-04-30T19:50:14.172Z,21.10
2018-04-30T19:52:42.672Z,21.07
2018-04-30T19:55:11.157Z,20.98
2018-04-30T19:57:39.612Z,20.99
2018-04-30T20:00:08.061Z,21.05
2018-04-30T20:02:36.549Z,21.04
2018-04-30T20:05:05.024Z,20.98
2018-04-30T20:07:33.504Z,20.89
2018-04-30T20:10:01.956Z,20.81
2018-04-30T20:12:30.445Z,20.81
2018-04-30T20:14:58.910Z,20.75
2018-04-30T20:17:27.403Z,20.70
2018-04-30T20:19:55.896Z,20.68
2018-04-30T20:22:24.348Z,20.64
2018-04-30T20:24:52.841Z,20.60
2018-04-30T20:27:21.293Z,20.54
2018-04-30T20:29:49.781Z,20.48
2018-04-30T20:32:18.257Z,20.45
2018-04-30T20:34:46.732Z,20.40
2018-04-30T20:37:15.224Z,20.36
2018-04-30T20:39:43.710Z,20.32
2018-04-30T20:42:12.208Z,20.26
2018-04-30T20:44:40.696Z,20.21
2018-04-30T20:47:09.161Z,20.15
2018-04-30T20:49:37.641Z,20.11
2018-04-30T20:52:06.140Z,20.05
2018-04-30T20:54:34.589Z,20.04
2018-04-30T20:57:03.043Z,19.97
2018-04-30T20:59:31.528Z,19.95
2018-04-30T21:02:00.014Z,19.88
2018-04-30T21:04:28.476Z,19.86
2018-04-30T21:06:56.961Z,19.85
2018-04-30T21:09:25.442Z,19.82
2018-04-30T21:11:53.955Z,19.80
2018-04-30T21:14:22.397Z,19.70
2018-04-30T21:16:50.881Z,19.72
2018-04-30T21:19:19.364Z,19.64
2018-04-30T21:21:47.817Z,19.67
2018-04-30T21:24:16.385Z,19.64
2018-04-30T21:26:44.848Z,19.52
2018-04-30T21:29:13.340Z,19.38
2018-04-30T21:31:41.798Z,19.33
2018-04-30T21:34:10.300Z,19.38
2018-04-30T21:36:38.755Z,19.21
2018-04-30T21:39:07.263Z,19.24
2018-04-30T21:41:35.753Z,19.27
2018-04-30T21:44:04.244Z,19.34
2018-04-30T21:46:32.829Z,19.33
2018-04-30T21:49:01.321Z,19.31
2018-04-30T21:51:29.774Z,19.35
2018-04-30T21:53:58.276Z,19.32
2018-04-30T21:56:26.761Z,19.26
2018-04-30T21:58:55.208Z,19.18
2018-04-30T22:01:23.701Z,19.19
2018-04-30T22:03:52.184Z,19.16
2018-04-30T22:06:20.688Z,19.15
2018-04-30T22:08:49.141Z,19.13
2018-04-30T22:11:17.644Z,19.12
2018-04-30T22:13:46.140Z,19.10
2018-04-30T22:16:14.593Z,19.03
2018-04-30T22:18:43.077Z,19.02
2018-04-30T22:21:11.532Z,18.97
2018-04-30T22:23:40.045Z,19.05
2018-04-30T22:26:08.520Z,19.03
2018-04-30T22:28:36.996Z,19.02
2018-04-30T22:31:05.512Z,19.01
2018-04-30T22:33:34.035Z,18.97
2018-04-30T22:36:02.520Z,18.96
2018-04-30T22:38:31.013Z,18.95
2018-04-30T22:40:59.476Z,18.92
2018-04-30T22:43:27.963Z,18.86
2018-04-30T22:45:56.423Z,18.75
2018-04-30T22:48:24.932Z,18.76
2018-04-30T22:50:53.398Z,18.74
2018-04-30T22:53:21.868Z,18.71
2018-04-30T22:55:50.372Z,18.70
2018-04-30T22:58:18.839Z,18.63
2018-04-30T23:00:47.340Z,18.63
2018-04-30T23:03:15.832Z,18.60
2018-04-30T23:05:44.336Z,18.59
2018-04-30T23:08:12.806Z,18.56
2018-04-30T23:10:41.319Z,18.53
2018-04-30T23:13:09.809Z,18.50
2018-04-30T23:15:38.301Z,18.44
2018-04-30T23:18:06.817Z,18.43
2018-04-30T23:20:35.280Z,18.41
2018-04-30T23:23:03.748Z,18.33
2018-04-30T23:25:32.252Z,18.32
2018-04-30T23:28:00.716Z,18.29
2018-04-30T23:30:29.228Z,18.31
2018-04-30T23:32:57.741Z,18.26
2018-04-30T23:35:26.196Z,18.22
2018-04-30T23:37:54.702Z,18.12
2018-04-30T23:40:23.226Z,18.02
2018-04-30T23:42:51.724Z,18.03
2018-04-30T23:45:20.246Z,18.05
2018-04-30T23:47:48.721Z,18.04
2018-04-30T23:50:17.203Z,18.03
2018-04-30T23:52:45.714Z,18.03
2018-04-30T23:55:14.170Z,18.07
2018-04-30T23:57:42.642Z,18.09
